createdAt,value
2023-01-22T00:01:52.400Z,66.15
2023-01-22T00:04:20.662Z,93.88
2023-01-22T00:06:49.006Z,57.08
2023-01-22T00:09:17.274Z,53.00
2023-01-22T00:11:45.528Z,66.10
2023-01-22T00:14:13.836Z,47.85
2023-01-22T00:16:43.650Z,43.50
2023-01-22T00:19:12.233Z,44.03
2023-01-22T00:21:40.577Z,47.25
2023-01-22T00:24:09.914Z,41.78
2023-01-22T00:26:39.059Z,47.42
2023-01-22T00:29:07.454Z,50.47
2023-01-22T00:31:35.804Z,48.80
2023-01-22T00:34:05.678Z,43.83
2023-01-22T00:36:34.099Z,39.42
2023-01-22T00:39:02.781Z,41.65
2023-01-22T00:41:31.129Z,48.10
2023-01-22T00:44:02.783Z,40.55
2023-01-22T00:46:31.076Z,46.10
2023-01-22T00:48:59.719Z,43.47
2023-01-22T00:51:29.377Z,42.40
2023-01-22T00:53:57.808Z,42.22
2023-01-22T00:56:26.182Z,37.75
2023-01-22T00:58:54.546Z,43.20
2023-01-22T01:01:22.887Z,44.22
2023-01-22T01:03:51.125Z,38.25
2023-01-22T01:06:22.101Z,39.55
2023-01-22T01:08:52.092Z,43.05
2023-01-22T01:11:23.195Z,43.33
2023-01-22T01:13:52.444Z,44.53
2023-01-22T01:16:24.538Z,42.72
2023-01-22T01:18:53.074Z,38.30
2023-01-22T01:21:21.431Z,50.05
2023-01-22T01:23:51.084Z,43.92
2023-01-22T01:26:19.507Z,49.53
2023-01-22T01:28:47.836Z,45.72
2023-01-22T01:31:18.103Z,48.13
2023-01-22T01:33:47.203Z,48.70
2023-01-22T01:36:19.731Z,46.33
2023-01-22T01:38:57.946Z,45.78
2023-01-22T01:41:27.978Z,48.13
2023-01-22T01:44:11.948Z,45.53
2023-01-22T01:46:46.196Z,47.97
2023-01-22T01:49:26.838Z,45.78
2023-01-22T01:51:59.360Z,44.42
2023-01-22T01:54:30.303Z,45.90
2023-01-22T01:57:05.536Z,43.03
2023-01-22T01:59:34.285Z,38.92
2023-01-22T02:02:05.315Z,40.03
2023-01-22T02:04:34.087Z,41.53
2023-01-22T02:07:02.760Z,35.33
2023-01-22T02:09:33.126Z,37.55
2023-01-22T02:12:01.984Z,39.72
2023-01-22T02:14:34.607Z,38.15
2023-01-22T02:17:04.083Z,39.70
2023-01-22T02:19:32.325Z,43.80
2023-01-22T02:22:02.476Z,35.50
2023-01-22T02:24:32.060Z,36.92
2023-01-22T02:27:00.323Z,31.45
2023-01-22T02:29:29.153Z,35.45
2023-01-22T02:31:57.572Z,30.65
2023-01-22T02:34:26.041Z,32.58
2023-01-22T02:36:55.194Z,37.28
2023-01-22T02:39:24.934Z,35.38
2023-01-22T02:41:53.360Z,32.78
2023-01-22T02:44:21.666Z,28.10
2023-01-22T02:46:49.968Z,34.65
2023-01-22T02:49:18.624Z,31.90
2023-01-22T02:51:46.969Z,30.65
2023-01-22T02:54:15.317Z,30.50
2023-01-22T02:56:45.052Z,38.25
2023-01-22T02:59:13.335Z,35.97
2023-01-22T03:01:41.600Z,39.58
2023-01-22T03:04:11.792Z,33.85
2023-01-22T03:06:42.257Z,33.22
2023-01-22T03:09:12.278Z,34.95
2023-01-22T03:11:44.726Z,37.38
2023-01-22T03:14:31.201Z,33.00
2023-01-22T03:17:17.673Z,32.28
2023-01-22T03:20:03.832Z,34.40
2023-01-22T03:22:32.194Z,28.95
2023-01-22T03:25:01.482Z,31.30
2023-01-22T03:27:33.122Z,32.35
2023-01-22T03:30:01.458Z,30.80
2023-01-22T03:32:29.764Z,37.00
2023-01-22T03:34:58.098Z,30.40
2023-01-22T03:37:26.384Z,29.40
2023-01-22T03:39:54.791Z,29.77
2023-01-22T03:42:25.643Z,30.02
2023-01-22T03:44:55.475Z,29.38
2023-01-22T03:47:23.768Z,28.13
2023-01-22T03:49:52.115Z,33.83
2023-01-22T03:52:20.477Z,26.90
2023-01-22T03:54:48.913Z,28.05
2023-01-22T03:57:17.194Z,26.80
2023-01-22T03:59:45.768Z,26.08
2023-01-22T04:02:15.550Z,28.77
2023-01-22T04:04:47.774Z,25.88
2023-01-22T04:07:16.082Z,25.95
2023-01-22T04:09:44.567Z,24.92
2023-01-22T04:12:12.899Z,25.25
2023-01-22T04:14:41.130Z,25.13
2023-01-22T04:17:09.471Z,22.73
2023-01-22T04:19:39.199Z,23.95
2023-01-22T04:22:07.511Z,25.63
2023-01-22T04:24:36.407Z,26.70
2023-01-22T04:27:04.879Z,25.80
2023-01-22T04:29:33.102Z,27.80
2023-01-22T04:32:01.372Z,23.75
2023-01-22T04:34:29.633Z,28.63
2023-01-22T04:36:59.263Z,23.23
2023-01-22T04:39:27.528Z,25.15
2023-01-22T04:41:55.811Z,23.75
2023-01-22T04:44:24.093Z,24.55
2023-01-22T04:46:52.396Z,24.15
2023-01-22T04:49:20.691Z,24.48
2023-01-22T04:51:48.997Z,21.73
2023-01-22T04:54:19.026Z,24.13
2023-01-22T04:56:47.317Z,22.30
2023-01-22T04:59:15.575Z,24.85
2023-01-22T05:01:44.416Z,26.55
2023-01-22T05:04:12.709Z,22.33
2023-01-22T05:06:40.949Z,25.10
2023-01-22T05:09:09.400Z,27.33
2023-01-22T05:11:39.191Z,24.95
2023-01-22T05:14:09.260Z,24.25
2023-01-22T05:16:38.779Z,32.00
2023-01-22T05:19:07.196Z,26.75
2023-01-22T05:21:35.547Z,25.50
2023-01-22T05:24:03.864Z,26.27
2023-01-22T05:26:32.111Z,28.30
2023-01-22T05:29:01.752Z,24.73
2023-01-22T05:31:30.100Z,28.67
2023-01-22T05:33:58.402Z,26.27
2023-01-22T05:36:26.777Z,24.88
2023-01-22T05:38:55.496Z,22.80
2023-01-22T05:41:23.978Z,24.42
2023-01-22T05:43:52.295Z,24.88
2023-01-22T05:46:22.284Z,23.80
2023-01-22T05:48:50.553Z,23.23
2023-01-22T05:51:19.394Z,25.63
2023-01-22T05:53:47.770Z,25.70
2023-01-22T05:56:16.141Z,23.02
2023-01-22T05:58:44.565Z,28.85
2023-01-22T06:01:13.368Z,24.50
2023-01-22T06:03:43.529Z,25.70
2023-01-22T06:06:14.444Z,25.77
2023-01-22T06:08:42.857Z,23.73
2023-01-22T06:11:13.558Z,25.70
2023-01-22T06:13:42.035Z,21.35
2023-01-22T06:16:11.247Z,25.35
2023-01-22T06:18:39.830Z,22.00
2023-01-22T06:21:10.515Z,21.92
2023-01-22T06:23:39.297Z,20.77
2023-01-22T06:26:07.629Z,27.00
2023-01-22T06:28:35.952Z,27.05
2023-01-22T06:31:07.686Z,20.55
2023-01-22T06:33:37.984Z,22.25
2023-01-22T06:36:09.060Z,19.90
2023-01-22T06:38:38.464Z,25.45
2023-01-22T06:41:07.053Z,22.77
2023-01-22T06:43:36.783Z,21.58
2023-01-22T06:46:05.719Z,22.80
2023-01-22T06:48:34.182Z,22.88
2023-01-22T06:51:02.643Z,19.55
2023-01-22T06:53:32.325Z,26.92
2023-01-22T06:56:00.838Z,23.10
2023-01-22T06:58:29.383Z,26.95
2023-01-22T07:01:01.996Z,23.20
2023-01-22T07:03:30.419Z,21.83
2023-01-22T07:06:00.477Z,23.45
2023-01-22T07:08:31.748Z,19.30
2023-01-22T07:11:01.979Z,26.48
2023-01-22T07:13:30.649Z,21.67
2023-01-22T07:16:03.054Z,20.00
2023-01-22T07:18:31.700Z,19.17
2023-01-22T07:21:02.288Z,18.30
2023-01-22T07:23:32.473Z,20.13
2023-01-22T07:26:00.723Z,19.58
2023-01-22T07:28:29.142Z,17.40
2023-01-22T07:30:57.814Z,24.80
2023-01-22T07:33:26.182Z,24.83
2023-01-22T07:35:57.843Z,20.65
2023-01-22T07:38:29.255Z,18.02
2023-01-22T07:41:04.347Z,22.17
2023-01-22T07:43:34.373Z,18.50
2023-01-22T07:46:03.831Z,17.55
2023-01-22T07:48:32.383Z,16.30
2023-01-22T07:51:01.993Z,17.80
2023-01-22T07:53:30.871Z,16.88
2023-01-22T07:55:59.443Z,18.50
2023-01-22T07:58:29.602Z,16.02
2023-01-22T08:00:58.009Z,15.93
2023-01-22T08:03:26.632Z,15.98
2023-01-22T08:05:56.934Z,18.63
2023-01-22T08:08:25.630Z,17.17
2023-01-22T08:10:53.876Z,21.63
2023-01-22T08:13:22.146Z,19.23
2023-01-22T08:15:51.734Z,17.35
2023-01-22T08:18:22.856Z,18.63
2023-01-22T08:20:52.050Z,16.73
2023-01-22T08:23:21.999Z,16.95
2023-01-22T08:25:55.044Z,21.17
2023-01-22T08:28:23.381Z,16.27
2023-01-22T08:31:07.800Z,15.40
2023-01-22T08:33:37.917Z,14.80
2023-01-22T08:36:09.681Z,16.27
2023-01-22T08:38:38.365Z,15.63
2023-01-22T08:41:10.949Z,17.20
2023-01-22T08:43:41.688Z,16.50
2023-01-22T08:46:15.177Z,19.77
2023-01-22T08:48:44.288Z,20.27
2023-01-22T08:51:13.395Z,19.08
2023-01-22T08:53:44.018Z,20.90
2023-01-22T08:56:14.919Z,17.88
2023-01-22T08:58:45.066Z,19.40
2023-01-22T09:01:19.820Z,17.67
2023-01-22T09:03:48.794Z,17.83
2023-01-22T09:06:17.107Z,16.88
2023-01-22T09:08:45.533Z,18.00
2023-01-22T09:11:13.811Z,15.10
2023-01-22T09:13:48.314Z,17.17
2023-01-22T09:16:18.021Z,16.63
2023-01-22T09:18:46.338Z,15.98
2023-01-22T09:21:14.570Z,15.70
2023-01-22T09:23:42.902Z,16.23
2023-01-22T09:26:11.249Z,15.55
2023-01-22T09:28:39.911Z,17.92
2023-01-22T09:31:08.236Z,23.02
2023-01-22T09:33:38.071Z,18.63
2023-01-22T09:36:11.572Z,16.13
2023-01-22T09:38:40.124Z,16.40
2023-01-22T09:41:17.833Z,21.50
2023-01-22T09:43:52.887Z,23.30
2023-01-22T09:46:29.946Z,17.40
2023-01-22T09:49:09.310Z,19.45
2023-01-22T09:51:38.018Z,19.08
2023-01-22T09:54:08.836Z,16.55
2023-01-22T09:56:43.112Z,15.98
2023-01-22T09:59:18.576Z,18.23
2023-01-22T10:01:51.419Z,19.30
2023-01-22T10:04:34.630Z,20.05
2023-01-22T10:07:06.797Z,18.65
2023-01-22T10:09:35.877Z,20.42
2023-01-22T10:12:14.051Z,19.45
2023-01-22T10:14:44.169Z,18.67
2023-01-22T10:17:21.647Z,20.45
2023-01-22T10:19:55.671Z,19.27
2023-01-22T10:22:27.258Z,21.35
2023-01-22T10:24:57.529Z,20.45
2023-01-22T10:27:36.872Z,17.98
2023-01-22T10:30:19.535Z,18.52
2023-01-22T10:33:00.759Z,18.70
2023-01-22T10:41:01.114Z,16.95
2023-01-22T10:43:35.845Z,16.13
2023-01-22T10:46:20.920Z,15.73
2023-01-22T10:49:01.262Z,15.60
2023-01-22T10:51:33.918Z,17.25
2023-01-22T10:54:03.418Z,22.02
2023-01-22T10:56:35.390Z,16.35
2023-01-22T10:59:23.422Z,20.63
2023-01-22T11:02:00.117Z,15.75
2023-01-22T11:04:36.210Z,15.15
2023-01-22T11:07:10.596Z,18.67
2023-01-22T11:09:43.845Z,17.35
2023-01-22T11:12:21.064Z,17.60
2023-01-22T11:15:04.519Z,17.50
2023-01-22T11:17:44.527Z,15.85
2023-01-22T11:20:23.649Z,14.57
2023-01-22T11:23:07.410Z,14.18
2023-01-22T11:25:48.702Z,15.05
2023-01-22T11:28:41.916Z,13.55
2023-01-22T11:31:40.290Z,14.82
2023-01-22T16:14:15.607Z,20.92
2023-01-22T16:16:45.762Z,22.02
2023-01-22T16:19:14.740Z,22.05
2023-01-22T16:21:47.749Z,22.15
2023-01-22T16:24:17.790Z,18.80
2023-01-22T16:26:47.112Z,21.88
2023-01-22T16:29:17.634Z,21.50
2023-01-22T16:31:51.773Z,24.63
2023-01-22T16:34:22.957Z,24.08
2023-01-22T16:36:51.711Z,21.13
2023-01-22T16:39:23.414Z,23.05
2023-01-22T16:41:53.998Z,24.73
2023-01-22T17:29:42.752Z,29.65
2023-01-22T17:32:12.191Z,25.95
2023-01-22T17:34:44.113Z,27.50
2023-01-22T17:37:13.811Z,25.23
2023-01-22T17:39:43.565Z,25.67
2023-01-22T17:42:15.965Z,31.20
2023-01-22T17:44:46.908Z,29.05
2023-01-22T17:47:15.699Z,28.25
2023-01-22T17:49:44.453Z,27.90
2023-01-22T17:52:13.104Z,26.15
2023-01-22T17:54:42.319Z,24.58
2023-01-22T19:20:15.082Z,34.25
2023-01-22T19:25:26.301Z,29.85
2023-01-22T19:27:56.477Z,31.52
2023-01-22T19:30:25.746Z,32.58
2023-01-22T19:32:55.944Z,32.15
2023-01-22T19:35:26.481Z,33.92
2023-01-22T19:37:55.767Z,30.02
2023-01-22T19:40:24.821Z,30.45
2023-01-22T23:42:57.384Z,24.40
2023-01-22T23:45:27.895Z,27.77
2023-01-22T23:47:57.700Z,27.73
2023-01-22T23:50:26.739Z,31.65
2023-01-22T23:52:55.819Z,31.90
2023-01-22T23:55:24.671Z,28.55
2023-01-22T23:57:54.509Z,35.58
